createdAt,value
2019-04-26T00:01:26.987Z,1.50
2019-04-26T00:03:57.550Z,2.10
2019-04-26T00:06:28.288Z,1.07
2019-04-26T00:09:15.812Z,1.30
2019-04-26T00:12:07.941Z,1.50
2019-04-26T00:14:56.218Z,1.07
2019-04-26T00:17:44.109Z,1.33
2019-04-26T00:20:15.034Z,1.73
2019-04-26T00:22:45.607Z,1.67
2019-04-26T00:25:16.524Z,1.80
2019-04-26T00:27:47.056Z,1.37
2019-04-26T00:30:17.620Z,1.23
2019-04-26T00:32:48.072Z,1.60
2019-04-26T00:35:18.571Z,2.17
2019-04-26T00:37:49.034Z,2.00
2019-04-26T00:40:20.356Z,1.50
2019-04-26T00:42:52.256Z,1.60
2019-04-26T00:45:23.921Z,1.80
2019-04-26T00:47:56.111Z,1.70
2019-04-26T00:50:26.585Z,2.40
2019-04-26T00:52:57.747Z,2.70
2019-04-26T00:55:30.227Z,2.00
2019-04-26T00:58:01.599Z,1.80
2019-04-26T01:00:32.138Z,1.60
2019-04-26T01:03:02.715Z,1.50
2019-04-26T01:05:34.896Z,1.27
2019-04-26T01:08:05.427Z,1.90
2019-04-26T01:10:36.173Z,1.50
2019-04-26T01:13:06.646Z,1.40
2019-04-26T01:15:37.539Z,1.90
2019-04-26T01:18:08.109Z,1.27
2019-04-26T01:20:40.842Z,1.17
2019-04-26T01:23:17.379Z,1.60
2019-04-26T01:26:11.998Z,1.45
2019-04-26T01:28:55.165Z,1.40
2019-04-26T01:31:29.253Z,1.30
2019-04-26T01:33:59.786Z,1.50
2019-04-26T01:36:34.206Z,1.40
2019-04-26T01:39:17.535Z,1.50
2019-04-26T01:41:57.220Z,1.70
2019-04-26T01:44:47.977Z,1.80
2019-04-26T01:47:20.047Z,1.82
2019-04-26T01:49:51.584Z,1.60
2019-04-26T01:52:22.845Z,1.60
2019-04-26T01:54:54.292Z,1.60
2019-04-26T01:57:29.892Z,1.50
2019-04-26T02:00:10.746Z,1.70
2019-04-26T02:02:53.916Z,1.50
2019-04-26T02:05:26.296Z,1.47
2019-04-26T02:07:57.119Z,1.40
2019-04-26T02:10:28.696Z,2.20
2019-04-26T02:13:00.074Z,1.90
2019-04-26T02:15:33.885Z,1.90
2019-04-26T02:18:05.261Z,1.87
2019-04-26T02:21:04.239Z,1.83
2019-04-26T02:23:44.637Z,1.60
2019-04-26T02:26:34.638Z,1.35
2019-04-26T02:29:12.899Z,1.57
2019-04-26T02:31:48.028Z,1.95
2019-04-26T02:34:18.481Z,1.72
2019-04-26T02:36:58.056Z,1.82
2019-04-26T02:39:29.358Z,1.77
2019-04-26T02:42:06.309Z,1.77
2019-04-26T02:44:58.092Z,1.62
2019-04-26T02:48:02.229Z,1.80
2019-04-26T02:50:41.879Z,1.73
2019-04-26T02:53:25.255Z,1.75
2019-04-26T02:56:37.676Z,1.90
2019-04-26T02:59:38.162Z,1.80
2019-04-26T03:02:32.290Z,1.80
2019-04-26T03:05:07.775Z,1.67
2019-04-26T03:08:11.658Z,1.90
2019-04-26T03:10:51.805Z,2.10
2019-04-26T03:13:48.955Z,2.17
2019-04-26T03:16:43.068Z,2.20
2019-04-26T03:19:49.424Z,1.67
2019-04-26T03:22:57.510Z,2.10
2019-04-26T03:26:22.355Z,2.13
2019-04-26T03:29:37.632Z,2.35
2019-04-26T03:32:56.825Z,2.30
2019-04-26T03:35:58.257Z,2.33
2019-04-26T03:38:45.276Z,2.40
2019-04-26T03:41:44.313Z,2.25
2019-04-26T03:44:42.827Z,2.40
2019-04-26T03:47:20.526Z,2.42
2019-04-26T03:50:21.508Z,2.90
2019-04-26T03:53:12.945Z,3.40
2019-04-26T03:56:58.473Z,3.10
2019-04-26T03:59:46.716Z,2.90
2019-04-26T04:02:45.721Z,3.30
2019-04-26T04:05:37.262Z,3.30
2019-04-26T04:08:11.313Z,3.40
2019-04-26T04:10:49.632Z,3.47
2019-04-26T04:13:44.193Z,4.40
2019-04-26T04:17:20.850Z,5.45
2019-04-26T04:20:30.038Z,5.90
2019-04-26T04:24:00.962Z,6.58
2019-04-26T04:27:41.949Z,6.87
2019-04-26T04:30:49.412Z,7.17
2019-04-26T04:34:10.181Z,7.70
2019-04-26T04:36:51.899Z,8.38
2019-04-26T04:39:40.830Z,9.38
2019-04-26T04:42:43.410Z,9.80
2019-04-26T04:45:53.040Z,10.10
2019-04-26T04:48:58.362Z,11.48
2019-04-26T04:52:32.434Z,12.10
2019-04-26T04:55:16.578Z,11.80
2019-04-26T04:58:11.325Z,12.70
2019-04-26T05:01:50.858Z,13.50
2019-04-26T05:04:43.753Z,14.07
2019-04-26T05:07:29.940Z,12.80
2019-04-26T05:10:26.192Z,14.93
2019-04-26T05:13:38.050Z,14.40
2019-04-26T05:16:33.742Z,13.85
2019-04-26T05:19:54.910Z,14.13
2019-04-26T05:22:58.660Z,14.68
2019-04-26T05:27:01.071Z,14.70
2019-04-26T05:30:56.132Z,14.87
2019-04-26T05:34:11.226Z,15.63
2019-04-26T05:37:26.744Z,14.50
2019-04-26T05:40:17.319Z,15.05
2019-04-26T05:43:53.920Z,15.08
2019-04-26T05:47:22.762Z,15.63
2019-04-26T05:51:26.146Z,16.02
2019-04-26T05:54:47.750Z,15.20
2019-04-26T05:57:59.066Z,17.53
2019-04-26T06:01:16.831Z,17.57
2019-04-26T06:04:25.369Z,18.50
2019-04-26T06:07:44.348Z,18.17
2019-04-26T06:10:33.243Z,17.55
2019-04-26T06:14:02.349Z,17.53
2019-04-26T06:17:22.041Z,18.17
2019-04-26T06:20:27.072Z,19.25
2019-04-26T06:23:47.400Z,17.30
2019-04-26T06:27:14.536Z,19.40
2019-04-26T06:30:17.104Z,18.80
2019-04-26T06:33:33.145Z,19.52
2019-04-26T06:36:13.554Z,19.80
2019-04-26T06:39:26.599Z,19.73
2019-04-26T06:42:32.683Z,18.10
2019-04-26T06:45:40.571Z,19.82
2019-04-26T06:48:34.848Z,19.25
2019-04-26T06:51:24.748Z,20.02
2019-04-26T06:54:16.178Z,19.67
2019-04-26T06:57:59.992Z,19.20
2019-04-26T07:00:58.989Z,20.23
2019-04-26T07:04:00.628Z,17.67
2019-04-26T07:06:39.733Z,17.37
2019-04-26T07:09:13.083Z,18.60
2019-04-26T07:12:32.532Z,18.27
2019-04-26T07:15:57.005Z,17.90
2019-04-26T07:19:06.173Z,15.97
2019-04-26T07:22:35.189Z,17.35
2019-04-26T07:26:11.331Z,15.80
2019-04-26T07:29:31.543Z,17.12
2019-04-26T07:32:24.514Z,10.87
2019-04-26T07:35:23.829Z,6.85
2019-04-26T07:39:20.721Z,5.17
2019-04-26T07:42:53.478Z,5.85
2019-04-26T07:46:19.323Z,5.10
2019-04-26T07:49:44.783Z,5.13
2019-04-26T07:52:49.096Z,4.62
2019-04-26T07:55:52.433Z,4.80
2019-04-26T07:59:44.228Z,4.40
2019-04-26T08:02:43.605Z,4.10
2019-04-26T08:05:32.739Z,4.00
2019-04-26T08:08:08.967Z,4.42
2019-04-26T08:10:43.625Z,4.80
2019-04-26T08:13:18.833Z,4.55
2019-04-26T08:16:30.525Z,4.45
2019-04-26T08:19:09.029Z,3.60
2019-04-26T08:21:47.997Z,3.95
2019-04-26T08:24:27.904Z,3.08
2019-04-26T08:27:23.993Z,2.50
2019-04-26T08:30:10.117Z,3.05
2019-04-26T08:32:47.366Z,2.80
2019-04-26T08:35:29.060Z,3.27
2019-04-26T08:38:16.041Z,3.50
2019-04-26T08:40:45.239Z,3.58
2019-04-26T08:43:37.247Z,3.17
2019-04-26T08:46:20.714Z,3.50
2019-04-26T08:49:11.207Z,3.60
2019-04-26T08:51:45.734Z,3.95
2019-04-26T08:54:24.894Z,4.22
2019-04-26T08:57:09.713Z,4.80
2019-04-26T08:59:46.636Z,4.85
2019-04-26T09:02:40.435Z,4.40
2019-04-26T09:05:28.148Z,4.78
2019-04-26T09:08:03.965Z,3.80
2019-04-26T09:10:43.295Z,4.53
2019-04-26T09:13:17.157Z,4.42
2019-04-26T09:16:19.474Z,4.40
2019-04-26T09:18:54.161Z,3.92
2019-04-26T09:21:33.702Z,4.12
2019-04-26T09:24:25.112Z,3.87
2019-04-26T09:27:00.472Z,3.70
2019-04-26T09:30:04.993Z,3.50
2019-04-26T09:32:42.012Z,3.75
2019-04-26T09:35:15.304Z,4.15
2019-04-26T09:37:45.947Z,4.90
2019-04-26T09:40:21.523Z,4.90
2019-04-26T09:43:15.068Z,4.78
2019-04-26T09:46:15.560Z,4.63
2019-04-26T09:48:56.158Z,3.98
2019-04-26T09:51:26.954Z,4.10
2019-04-26T09:53:57.679Z,3.58
2019-04-26T09:56:29.176Z,3.20
2019-04-26T09:59:05.202Z,3.33
2019-04-26T10:01:34.641Z,3.60
2019-04-26T10:04:05.118Z,3.20
2019-04-26T10:06:35.871Z,3.20
2019-04-26T10:09:12.855Z,3.40
2019-04-26T10:11:48.279Z,3.72
2019-04-26T10:14:26.344Z,3.65
2019-04-26T10:17:25.319Z,4.55
2019-04-26T10:19:57.584Z,4.50
2019-04-26T10:22:31.067Z,4.87
2019-04-26T10:25:08.083Z,4.30
2019-04-26T10:27:40.283Z,4.10
2019-04-26T10:30:10.826Z,4.20
2019-04-26T10:32:41.369Z,4.60
2019-04-26T10:35:13.434Z,4.62
2019-04-26T10:37:47.965Z,3.90
2019-04-26T10:40:17.689Z,4.30
2019-04-26T10:42:48.913Z,4.40
2019-04-26T10:45:19.887Z,4.40
2019-04-26T10:47:51.337Z,4.30
2019-04-26T10:50:22.259Z,4.03
2019-04-26T10:53:02.672Z,4.80
2019-04-26T10:56:01.522Z,4.00
2019-04-26T10:58:49.631Z,3.37
2019-04-26T11:01:22.249Z,3.70
2019-04-26T11:03:52.661Z,3.75
2019-04-26T11:06:27.882Z,4.10
2019-04-26T11:08:57.059Z,4.00
2019-04-26T11:11:27.894Z,4.30
2019-04-26T11:13:59.244Z,4.10
2019-04-26T11:16:29.734Z,4.33
2019-04-26T11:19:01.206Z,4.70
2019-04-26T11:21:34.211Z,4.50
2019-04-26T11:24:04.719Z,4.40
2019-04-26T11:26:36.292Z,4.70
2019-04-26T11:29:06.967Z,4.12
2019-04-26T11:31:37.554Z,4.78
2019-04-26T11:34:08.342Z,4.67
2019-04-26T11:36:41.798Z,4.50
2019-04-26T11:39:13.544Z,4.20
2019-04-26T11:41:44.922Z,4.10
2019-04-26T11:44:15.477Z,4.80
2019-04-26T11:46:46.350Z,4.40
2019-04-26T11:49:16.820Z,4.60
2019-04-26T11:51:50.204Z,4.37
2019-04-26T11:54:22.223Z,4.35
2019-04-26T11:56:54.518Z,4.20
2019-04-26T11:59:27.120Z,4.22
2019-04-26T12:01:57.440Z,4.17
2019-04-26T12:04:49.595Z,4.23
2019-04-26T12:07:24.289Z,4.50
2019-04-26T12:09:56.265Z,4.85
2019-04-26T12:12:27.687Z,4.90
2019-04-26T12:14:58.250Z,4.50
2019-04-26T12:17:31.141Z,4.92
2019-04-26T12:20:01.163Z,4.70
2019-04-26T12:22:31.668Z,4.35
2019-04-26T12:25:03.322Z,4.70
2019-04-26T12:27:34.544Z,5.00
2019-04-26T12:30:05.407Z,4.70
2019-04-26T12:32:36.124Z,4.60
2019-04-26T12:35:06.683Z,4.10
2019-04-26T12:37:37.275Z,4.30
2019-04-26T12:40:11.357Z,4.30
2019-04-26T12:42:43.477Z,4.40
2019-04-26T12:45:38.533Z,4.05
2019-04-26T12:48:12.308Z,4.30
2019-04-26T12:50:43.339Z,3.90
2019-04-26T12:53:13.951Z,4.00
2019-04-26T12:55:44.572Z,3.77
2019-04-26T12:58:15.441Z,3.95
2019-04-26T13:00:53.745Z,3.80
2019-04-26T13:03:20.576Z,2.58
2019-04-26T13:05:57.717Z,2.80
2019-04-26T13:08:23.587Z,3.20
2019-04-26T13:11:28.314Z,3.00
2019-04-26T13:14:03.049Z,3.25
2019-04-26T13:16:49.461Z,3.20
2019-04-26T13:19:21.053Z,4.20
2019-04-26T13:21:51.684Z,4.30
2019-04-26T13:24:22.234Z,4.78
2019-04-26T13:26:52.969Z,5.65
2019-04-26T13:29:23.537Z,5.00
2019-04-26T13:31:54.057Z,4.50
2019-04-26T13:34:24.623Z,3.98
2019-04-26T13:36:55.169Z,3.98
2019-04-26T13:39:25.707Z,4.37
2019-04-26T13:42:02.948Z,4.28
2019-04-26T13:44:46.389Z,3.90
2019-04-26T13:47:35.896Z,3.50
2019-04-26T13:50:29.253Z,3.65
2019-04-26T13:52:59.825Z,3.58
2019-04-26T13:55:30.531Z,3.92
2019-04-26T13:58:01.160Z,6.20
2019-04-26T14:00:33.016Z,6.93
2019-04-26T14:03:03.569Z,6.30
2019-04-26T14:05:34.123Z,7.43
2019-04-26T14:08:04.833Z,6.67
2019-04-26T14:10:35.726Z,7.55
2019-04-26T14:13:06.294Z,7.03
2019-04-26T14:15:39.496Z,6.30
2019-04-26T14:18:09.411Z,7.53
2019-04-26T14:20:39.933Z,7.22
2019-04-26T14:23:35.259Z,8.23
2019-04-26T14:26:08.837Z,9.00
2019-04-26T14:28:41.880Z,8.60
2019-04-26T14:31:12.372Z,8.80
2019-04-26T14:33:44.069Z,8.40
2019-04-26T14:36:18.050Z,8.80
2019-04-26T14:38:46.934Z,9.45
2019-04-26T14:41:21.807Z,9.63
2019-04-26T14:43:52.596Z,10.50
2019-04-26T14:46:23.016Z,9.83
2019-04-26T14:49:01.430Z,9.28
2019-04-26T14:51:26.114Z,8.70
2019-04-26T14:53:56.661Z,7.72
2019-04-26T14:56:29.436Z,7.75
2019-04-26T14:59:01.702Z,7.17
2019-04-26T15:01:45.201Z,8.65
2019-04-26T15:04:33.377Z,8.73
2019-04-26T15:07:05.726Z,7.67
2019-04-26T15:09:36.698Z,7.67
2019-04-26T15:12:07.609Z,6.37
2019-04-26T15:14:39.749Z,5.80
2019-04-26T15:17:12.280Z,5.95
2019-04-26T15:19:45.862Z,5.60
2019-04-26T15:22:15.065Z,5.80
2019-04-26T15:24:45.621Z,5.10
2019-04-26T15:27:16.201Z,5.20
2019-04-26T15:29:46.743Z,5.55
2019-04-26T15:32:17.480Z,5.60
2019-04-26T15:34:48.052Z,4.77
2019-04-26T15:37:20.309Z,4.17
2019-04-26T15:40:09.900Z,5.33
2019-04-26T15:42:58.882Z,5.12
2019-04-26T15:45:35.918Z,5.03
2019-04-26T15:48:39.037Z,4.07
2019-04-26T15:51:09.632Z,2.80
2019-04-26T15:53:43.450Z,4.00
2019-04-26T15:56:16.271Z,4.10
2019-04-26T15:58:48.957Z,4.17
2019-04-26T16:01:16.926Z,4.27
2019-04-26T16:03:50.231Z,4.50
2019-04-26T16:06:20.861Z,4.40
2019-04-26T16:08:52.154Z,3.50
2019-04-26T16:11:22.781Z,3.92
2019-04-26T16:13:55.453Z,3.20
2019-04-26T16:16:29.197Z,2.60
2019-04-26T16:18:57.891Z,2.95
2019-04-26T16:21:28.701Z,2.80
2019-04-26T16:23:59.314Z,2.23
2019-04-26T16:26:29.896Z,2.10
2019-04-26T16:29:19.779Z,2.53
2019-04-26T16:32:08.245Z,1.83
2019-04-26T16:34:41.468Z,2.30
2019-04-26T16:37:16.574Z,2.42
2019-04-26T16:39:48.385Z,2.05
2019-04-26T16:42:16.496Z,2.13
2019-04-26T16:44:47.059Z,2.00
2019-04-26T16:47:17.688Z,1.85
2019-04-26T16:49:48.196Z,1.80
2019-04-26T16:52:18.791Z,1.70
2019-04-26T16:54:49.431Z,1.90
2019-04-26T16:57:20.157Z,2.10
2019-04-26T16:59:57.032Z,1.70
2019-04-26T17:04:55.302Z,2.30
2019-04-26T17:07:27.380Z,2.10
2019-04-26T17:09:51.041Z,1.80
2019-04-26T17:09:59.616Z,2.25
2019-04-26T17:12:30.542Z,2.40
2019-04-26T17:15:01.040Z,2.30
2019-04-26T17:17:33.110Z,3.00
2019-04-26T17:20:06.696Z,3.25
2019-04-26T17:23:00.783Z,3.80
2019-04-26T17:25:45.421Z,3.80
2019-04-26T17:28:18.083Z,4.20
2019-04-26T17:30:48.369Z,3.67
2019-04-26T17:33:23.555Z,4.95
2019-04-26T17:35:51.229Z,4.75
2019-04-26T17:38:22.488Z,4.53
2019-04-26T17:40:53.127Z,5.20
2019-04-26T17:43:23.718Z,8.00
2019-04-26T17:45:54.214Z,8.60
2019-04-26T17:48:24.774Z,9.90
2019-04-26T17:50:55.367Z,11.03
2019-04-26T17:53:31.168Z,12.63
2019-04-26T17:55:58.538Z,13.90
2019-04-26T17:58:33.724Z,14.20
2019-04-26T18:01:03.915Z,16.30
2019-04-26T18:03:34.485Z,16.20
2019-04-26T18:06:05.128Z,17.30
2019-04-26T18:08:55.265Z,17.20
2019-04-26T18:11:26.085Z,15.25
2019-04-26T18:13:56.616Z,16.48
2019-04-26T18:16:29.488Z,17.00
2019-04-26T18:19:31.360Z,15.90
2019-04-26T18:22:23.146Z,16.27
2019-04-26T18:24:53.810Z,15.95
2019-04-26T18:27:24.346Z,17.10
2019-04-26T18:29:54.961Z,17.32
2019-04-26T18:32:25.554Z,18.05
2019-04-26T18:34:56.132Z,18.50
2019-04-26T18:37:26.758Z,19.48
2019-04-26T18:40:00.943Z,20.85
2019-04-26T18:42:29.602Z,22.45
2019-04-26T18:45:00.215Z,22.10
2019-04-26T18:47:35.764Z,23.80
2019-04-26T18:50:07.435Z,28.02
2019-04-26T18:52:42.273Z,26.25
2019-04-26T18:55:29.020Z,27.50
2019-04-26T18:58:01.464Z,28.63
2019-04-26T19:00:34.247Z,27.45
2019-04-26T19:03:05.272Z,28.55
2019-04-26T19:05:36.028Z,27.67
2019-04-26T19:08:07.557Z,27.30
2019-04-26T19:10:38.941Z,28.45
2019-04-26T19:13:24.491Z,27.85
2019-04-26T19:16:03.675Z,28.50
2019-04-26T19:18:58.863Z,28.90
2019-04-26T19:21:41.672Z,29.90
2019-04-26T19:24:19.782Z,28.87
2019-04-26T19:26:49.675Z,29.37
2019-04-26T19:29:18.675Z,29.92
2019-04-26T19:31:49.166Z,33.02
2019-04-26T19:34:19.754Z,32.30
2019-04-26T19:36:50.416Z,33.70
2019-04-26T19:39:30.425Z,33.98
2019-04-26T19:41:57.626Z,33.20
2019-04-26T19:44:25.643Z,34.48
2019-04-26T19:47:27.306Z,35.17
2019-04-26T19:50:09.791Z,34.80
2019-04-26T19:52:58.994Z,35.50
2019-04-26T19:55:55.003Z,35.70
2019-04-26T19:58:28.135Z,37.55
2019-04-26T20:00:59.513Z,37.73
2019-04-26T20:03:30.060Z,38.85
2019-04-26T20:06:00.646Z,38.50
2019-04-26T20:08:35.478Z,39.23
2019-04-26T20:11:03.518Z,38.55
2019-04-26T20:13:34.083Z,39.90
2019-04-26T20:16:05.985Z,39.60
2019-04-26T20:18:38.947Z,38.88
2019-04-26T20:21:12.607Z,41.23
2019-04-26T20:23:43.795Z,40.23
2019-04-26T20:26:14.011Z,40.55
2019-04-26T20:28:44.539Z,41.05
2019-04-26T20:31:31.385Z,39.13
2019-04-26T20:34:05.524Z,38.65
2019-04-26T20:36:40.770Z,41.88
2019-04-26T20:39:08.492Z,39.60
2019-04-26T20:41:39.082Z,42.17
2019-04-26T20:44:10.246Z,40.80
2019-04-26T20:46:42.621Z,40.52
2019-04-26T20:49:13.333Z,39.40
2019-04-26T20:51:46.355Z,39.65
2019-04-26T20:54:17.391Z,41.23
2019-04-26T20:56:52.623Z,40.33
2019-04-26T20:59:21.984Z,41.80
2019-04-26T21:02:03.317Z,41.85
2019-04-26T21:04:36.854Z,41.95
2019-04-26T21:06:57.294Z,43.35
2019-04-26T21:09:27.929Z,43.63
2019-04-26T21:11:58.568Z,44.53
2019-04-26T21:14:29.110Z,44.98
2019-04-26T21:16:59.624Z,44.67
2019-04-26T21:19:32.736Z,44.95
2019-04-26T21:22:02.691Z,44.53
2019-04-26T21:24:36.897Z,43.63
2019-04-26T21:27:35.567Z,43.05
2019-04-26T21:30:29.434Z,43.42
2019-04-26T21:33:35.821Z,44.98
2019-04-26T21:36:16.043Z,42.20
2019-04-26T21:39:11.521Z,41.75
2019-04-26T21:41:46.754Z,41.02
2019-04-26T21:44:15.859Z,41.65
2019-04-26T21:46:49.713Z,42.83
2019-04-26T21:49:20.751Z,42.00
2019-04-26T21:51:52.639Z,43.87
2019-04-26T21:54:24.874Z,43.30
2019-04-26T21:56:55.787Z,42.83
2019-04-26T21:59:26.292Z,41.73
2019-04-26T22:01:59.169Z,43.13
2019-04-26T22:04:34.107Z,45.10
2019-04-26T22:07:06.347Z,44.40
2019-04-26T22:09:52.785Z,45.00
2019-04-26T22:12:27.332Z,43.98
2019-04-26T22:15:29.631Z,43.20
2019-04-26T22:18:03.279Z,44.80
2019-04-26T22:20:38.409Z,44.50
2019-04-26T22:23:33.940Z,43.80
2019-04-26T22:26:08.378Z,43.30
2019-04-26T22:28:37.631Z,45.48
2019-04-26T22:31:08.754Z,45.05
2019-04-26T22:33:39.576Z,46.83
2019-04-26T22:36:10.152Z,46.75
2019-04-26T22:38:40.740Z,44.30
2019-04-26T22:41:11.269Z,44.65
2019-04-26T22:44:05.442Z,43.15
2019-04-26T22:46:58.863Z,44.90
2019-04-26T22:49:27.171Z,45.98
2019-04-26T22:51:57.698Z,44.15
2019-04-26T22:54:28.220Z,46.02
2019-04-26T22:56:58.769Z,44.93
2019-04-26T22:59:29.325Z,44.10
2019-04-26T23:01:59.877Z,42.53
2019-04-26T23:04:30.687Z,43.73
2019-04-26T23:07:03.423Z,45.85
2019-04-26T23:09:33.701Z,43.33
2019-04-26T23:12:28.130Z,43.87
2019-04-26T23:15:15.965Z,41.92
2019-04-26T23:18:11.595Z,40.95
2019-04-26T23:20:48.813Z,39.58
2019-04-26T23:23:19.363Z,40.58
2019-04-26T23:25:49.849Z,42.62
2019-04-26T23:28:20.402Z,41.28
2019-04-26T23:30:50.971Z,39.50
2019-04-26T23:33:21.557Z,40.17
2019-04-26T23:35:53.004Z,38.70
2019-04-26T23:38:23.862Z,38.20
2019-04-26T23:40:57.235Z,38.80
2019-04-26T23:43:26.733Z,38.73
2019-04-26T23:45:57.288Z,38.75
2019-04-26T23:48:27.785Z,37.10
2019-04-26T23:50:59.850Z,37.65
2019-04-26T23:53:30.577Z,39.13
2019-04-26T23:56:01.112Z,37.87
2019-04-26T23:58:31.656Z,39.40
